sensor_id;sensor_type;location;lat;lon;timestamp;temperature;humidity
16823;DHT22;8528;49.976;11.858;2022-12-07T00:01:45;5.00;99.90
16823;DHT22;8528;49.976;11.858;2022-12-07T00:04:14;5.10;99.90
16823;DHT22;8528;49.976;11.858;2022-12-07T00:06:46;5.00;99.90
16823;DHT22;8528;49.976;11.858;2022-12-07T00:09:17;5.00;99.90
16823;DHT22;8528;49.976;11.858;2022-12-07T00:11:48;5.00;99.90
16823;DHT22;8528;49.976;11.858;2022-12-07T00:14:18;5.00;99.90
16823;DHT22;8528;49.976;11.858;2022-12-07T00:16:45;5.00;99.90
16823;DHT22;8528;49.976;11.858;2022-12-07T00:19:18;5.00;99.90
16823;DHT22;8528;49.976;11.858;2022-12-07T00:21:44;5.00;99.90
16823;DHT22;8528;49.976;11.858;2022-12-07T00:24:12;5.00;99.90
16823;DHT22;8528;49.976;11.858;2022-12-07T00:26:42;5.00;99.90
16823;DHT22;8528;49.976;11.858;2022-12-07T00:29:19;5.00;99.90
16823;DHT22;8528;49.976;11.858;2022-12-07T00:31:47;5.00;99.90
16823;DHT22;8528;49.976;11.858;2022-12-07T00:34:16;5.00;99.90
16823;DHT22;8528;49.976;11.858;2022-12-07T00:36:49;5.00;99.90
16823;DHT22;8528;49.976;11.858;2022-12-07T00:39:17;5.00;99.90
16823;DHT22;8528;49.976;11.858;2022-12-07T00:41:44;5.00;99.90
16823;DHT22;8528;49.976;11.858;2022-12-07T00:44:11;5.00;99.90
16823;DHT22;8528;49.976;11.858;2022-12-07T00:46:38;5.00;99.90
16823;DHT22;8528;49.976;11.858;2022-12-07T00:49:05;5.00;99.90
16823;DHT22;8528;49.976;11.858;2022-12-07T00:51:35;5.00;99.90
16823;DHT22;8528;49.976;11.858;2022-12-07T00:54:01;5.00;99.90
16823;DHT22;8528;49.976;11.858;2022-12-07T00:56:31;5.00;99.90
16823;DHT22;8528;49.976;11.858;2022-12-07T00:59:01;5.00;99.90
16823;DHT22;8528;49.976;11.858;2022-12-07T01:01:31;5.00;99.90
16823;DHT22;8528;49.976;11.858;2022-12-07T01:03:58;5.00;99.90
16823;DHT22;8528;49.976;11.858;2022-12-07T01:06:31;5.00;99.90
16823;DHT22;8528;49.976;11.858;2022-12-07T01:09:04;5.00;99.90
16823;DHT22;8528;49.976;11.858;2022-12-07T01:11:34;5.00;99.90
16823;DHT22;8528;49.976;11.858;2022-12-07T01:14:02;5.00;99.90
16823;DHT22;8528;49.976;11.858;2022-12-07T01:16:31;5.00;99.90
16823;DHT22;8528;49.976;11.858;2022-12-07T01:19:01;5.00;99.90
16823;DHT22;8528;49.976;11.858;2022-12-07T01:21:31;5.00;99.90
16823;DHT22;8528;49.976;11.858;2022-12-07T01:24:04;4.90;99.90
16823;DHT22;8528;49.976;11.858;2022-12-07T01:26:31;4.90;99.90
16823;DHT22;8528;49.976;11.858;2022-12-07T01:29:01;4.90;99.90
16823;DHT22;8528;49.976;11.858;2022-12-07T01:31:30;4.90;99.90
16823;DHT22;8528;49.976;11.858;2022-12-07T01:33:58;4.90;99.90
16823;DHT22;8528;49.976;11.858;2022-12-07T01:36:27;4.90;99.90
16823;DHT22;8528;49.976;11.858;2022-12-07T01:38:57;4.90;99.90
16823;DHT22;8528;49.976;11.858;2022-12-07T01:41:30;4.90;99.90
16823;DHT22;8528;49.976;11.858;2022-12-07T01:44:24;4.90;99.90
16823;DHT22;8528;49.976;11.858;2022-12-07T01:47:02;4.90;99.90
16823;DHT22;8528;49.976;11.858;2022-12-07T01:52:23;4.90;99.90
16823;DHT22;8528;49.976;11.858;2022-12-07T01:54:54;4.90;99.90
16823;DHT22;8528;49.976;11.858;2022-12-07T01:57:21;4.90;99.90
16823;DHT22;8528;49.976;11.858;2022-12-07T01:59:49;4.90;99.90
16823;DHT22;8528;49.976;11.858;2022-12-07T02:02:31;4.90;99.90
16823;DHT22;8528;49.976;11.858;2022-12-07T02:05:01;4.90;99.90
16823;DHT22;8528;49.976;11.858;2022-12-07T02:07:29;4.90;99.90
16823;DHT22;8528;49.976;11.858;2022-12-07T02:09:57;4.90;99.90
16823;DHT22;8528;49.976;11.858;2022-12-07T02:12:28;4.80;99.90
16823;DHT22;8528;49.976;11.858;2022-12-07T02:14:55;4.80;99.90
16823;DHT22;8528;49.976;11.858;2022-12-07T02:17:32;4.80;99.90
16823;DHT22;8528;49.976;11.858;2022-12-07T02:20:54;4.80;99.90
16823;DHT22;8528;49.976;11.858;2022-12-07T02:29:24;4.80;99.90
16823;DHT22;8528;49.976;11.858;2022-12-07T02:32:18;4.80;99.90
16823;DHT22;8528;49.976;11.858;2022-12-07T02:37:32;4.80;99.90
16823;DHT22;8528;49.976;11.858;2022-12-07T02:40:14;4.80;99.90
16823;DHT22;8528;49.976;11.858;2022-12-07T02:42:50;4.80;99.90
16823;DHT22;8528;49.976;11.858;2022-12-07T02:45:21;4.80;99.90
16823;DHT22;8528;49.976;11.858;2022-12-07T02:47:51;4.70;99.90
16823;DHT22;8528;49.976;11.858;2022-12-07T02:50:20;4.70;99.90
16823;DHT22;8528;49.976;11.858;2022-12-07T02:52:48;4.70;99.90
16823;DHT22;8528;49.976;11.858;2022-12-07T02:55:18;4.70;99.90
16823;DHT22;8528;49.976;11.858;2022-12-07T02:57:53;4.70;99.90
16823;DHT22;8528;49.976;11.858;2022-12-07T03:00:21;4.70;99.90
16823;DHT22;8528;49.976;11.858;2022-12-07T03:03:06;4.70;99.90
16823;DHT22;8528;49.976;11.858;2022-12-07T03:06:08;4.60;99.90
16823;DHT22;8528;49.976;11.858;2022-12-07T03:14:21;4.60;99.90
16823;DHT22;8528;49.976;11.858;2022-12-07T03:16:57;4.50;99.90
16823;DHT22;8528;49.976;11.858;2022-12-07T03:19:27;4.50;99.90
16823;DHT22;8528;49.976;11.858;2022-12-07T03:22:00;4.50;99.90
16823;DHT22;8528;49.976;11.858;2022-12-07T03:24:34;4.50;99.90
16823;DHT22;8528;49.976;11.858;2022-12-07T03:28:02;4.50;99.90
16823;DHT22;8528;49.976;11.858;2022-12-07T03:30:53;4.50;99.90
16823;DHT22;8528;49.976;11.858;2022-12-07T03:33:27;4.40;99.90
16823;DHT22;8528;49.976;11.858;2022-12-07T03:36:18;4.40;99.90
16823;DHT22;8528;49.976;11.858;2022-12-07T03:39:00;4.40;99.90
16823;DHT22;8528;49.976;11.858;2022-12-07T03:41:31;4.40;99.90
16823;DHT22;8528;49.976;11.858;2022-12-07T03:44:00;4.40;99.90
16823;DHT22;8528;49.976;11.858;2022-12-07T03:49:14;4.40;99.90
16823;DHT22;8528;49.976;11.858;2022-12-07T03:51:55;4.40;99.90
16823;DHT22;8528;49.976;11.858;2022-12-07T03:54:29;4.30;99.90
16823;DHT22;8528;49.976;11.858;2022-12-07T03:57:02;4.30;99.90
16823;DHT22;8528;49.976;11.858;2022-12-07T03:59:30;4.30;99.90
16823;DHT22;8528;49.976;11.858;2022-12-07T04:02:02;4.30;99.90
16823;DHT22;8528;49.976;11.858;2022-12-07T04:04:31;4.30;99.90
16823;DHT22;8528;49.976;11.858;2022-12-07T04:07:01;4.30;99.90
16823;DHT22;8528;49.976;11.858;2022-12-07T04:09:29;4.30;99.90
16823;DHT22;8528;49.976;11.858;2022-12-07T04:11:59;4.20;99.90
16823;DHT22;8528;49.976;11.858;2022-12-07T04:14:25;4.20;99.90
16823;DHT22;8528;49.976;11.858;2022-12-07T04:16:54;4.20;99.90
16823;DHT22;8528;49.976;11.858;2022-12-07T04:19:27;4.20;99.90
16823;DHT22;8528;49.976;11.858;2022-12-07T04:21:55;4.20;99.90
16823;DHT22;8528;49.976;11.858;2022-12-07T04:24:26;4.20;99.90
16823;DHT22;8528;49.976;11.858;2022-12-07T04:26:53;4.20;99.90
16823;DHT22;8528;49.976;11.858;2022-12-07T04:29:21;4.20;99.90
16823;DHT22;8528;49.976;11.858;2022-12-07T04:31:48;4.20;99.90
16823;DHT22;8528;49.976;11.858;2022-12-07T04:34:16;4.20;99.90
16823;DHT22;8528;49.976;11.858;2022-12-07T04:36:48;4.20;99.90
16823;DHT22;8528;49.976;11.858;2022-12-07T04:39:41;4.20;99.90
16823;DHT22;8528;49.976;11.858;2022-12-07T04:42:07;4.20;99.90
16823;DHT22;8528;49.976;11.858;2022-12-07T04:44:41;4.20;99.90
16823;DHT22;8528;49.976;11.858;2022-12-07T04:47:11;4.20;99.90
16823;DHT22;8528;49.976;11.858;2022-12-07T04:49:40;4.20;99.90
16823;DHT22;8528;49.976;11.858;2022-12-07T04:52:09;4.20;99.90
16823;DHT22;8528;49.976;11.858;2022-12-07T04:54:50;4.20;99.90
16823;DHT22;8528;49.976;11.858;2022-12-07T04:57:17;4.20;99.90
16823;DHT22;8528;49.976;11.858;2022-12-07T04:59:44;4.20;99.90
16823;DHT22;8528;49.976;11.858;2022-12-07T05:02:12;4.20;99.90
16823;DHT22;8528;49.976;11.858;2022-12-07T05:04:46;4.20;99.90
16823;DHT22;8528;49.976;11.858;2022-12-07T05:07:13;4.20;99.90
16823;DHT22;8528;49.976;11.858;2022-12-07T05:09:40;4.20;99.90
16823;DHT22;8528;49.976;11.858;2022-12-07T05:12:09;4.20;99.90
16823;DHT22;8528;49.976;11.858;2022-12-07T05:14:36;4.20;99.90
16823;DHT22;8528;49.976;11.858;2022-12-07T05:17:06;4.20;99.90
16823;DHT22;8528;49.976;11.858;2022-12-07T05:19:35;4.20;99.90
16823;DHT22;8528;49.976;11.858;2022-12-07T05:22:01;4.20;99.90
16823;DHT22;8528;49.976;11.858;2022-12-07T05:24:31;4.20;99.90
16823;DHT22;8528;49.976;11.858;2022-12-07T05:26:57;4.20;99.90
16823;DHT22;8528;49.976;11.858;2022-12-07T05:29:24;4.20;99.90
16823;DHT22;8528;49.976;11.858;2022-12-07T05:31:51;4.20;99.90
16823;DHT22;8528;49.976;11.858;2022-12-07T05:34:18;4.20;99.90
16823;DHT22;8528;49.976;11.858;2022-12-07T05:36:45;4.20;99.90
16823;DHT22;8528;49.976;11.858;2022-12-07T05:39:14;4.20;99.90
16823;DHT22;8528;49.976;11.858;2022-12-07T05:41:41;4.10;99.90
16823;DHT22;8528;49.976;11.858;2022-12-07T05:44:26;4.10;99.90
16823;DHT22;8528;49.976;11.858;2022-12-07T05:46:54;4.10;99.90
16823;DHT22;8528;49.976;11.858;2022-12-07T05:49:20;4.10;99.90
16823;DHT22;8528;49.976;11.858;2022-12-07T05:51:47;4.20;99.90
16823;DHT22;8528;49.976;11.858;2022-12-07T05:54:14;4.10;99.90
16823;DHT22;8528;49.976;11.858;2022-12-07T05:56:41;4.10;99.90
16823;DHT22;8528;49.976;11.858;2022-12-07T05:59:09;4.10;99.90
16823;DHT22;8528;49.976;11.858;2022-12-07T06:02:02;4.10;99.90
16823;DHT22;8528;49.976;11.858;2022-12-07T06:04:33;4.10;99.90
16823;DHT22;8528;49.976;11.858;2022-12-07T06:07:00;4.10;99.90
16823;DHT22;8528;49.976;11.858;2022-12-07T06:09:28;4.10;99.90
16823;DHT22;8528;49.976;11.858;2022-12-07T06:12:05;4.10;99.90
16823;DHT22;8528;49.976;11.858;2022-12-07T06:14:51;4.10;99.90
16823;DHT22;8528;49.976;11.858;2022-12-07T06:17:18;4.10;99.90
16823;DHT22;8528;49.976;11.858;2022-12-07T06:19:45;4.10;99.90
16823;DHT22;8528;49.976;11.858;2022-12-07T06:22:12;4.10;99.90
16823;DHT22;8528;49.976;11.858;2022-12-07T06:24:42;4.10;99.90
16823;DHT22;8528;49.976;11.858;2022-12-07T06:27:17;4.10;99.90
16823;DHT22;8528;49.976;11.858;2022-12-07T06:29:45;4.10;99.90
16823;DHT22;8528;49.976;11.858;2022-12-07T06:32:12;4.10;99.90
16823;DHT22;8528;49.976;11.858;2022-12-07T06:34:38;4.10;99.90
16823;DHT22;8528;49.976;11.858;2022-12-07T06:37:06;4.10;99.90
16823;DHT22;8528;49.976;11.858;2022-12-07T06:39:33;4.10;99.90
16823;DHT22;8528;49.976;11.858;2022-12-07T06:41:59;4.10;99.90
16823;DHT22;8528;49.976;11.858;2022-12-07T06:44:26;4.10;99.90
16823;DHT22;8528;49.976;11.858;2022-12-07T06:46:56;4.10;99.90
16823;DHT22;8528;49.976;11.858;2022-12-07T06:49:42;4.10;99.90
16823;DHT22;8528;49.976;11.858;2022-12-07T06:52:13;4.10;99.90
16823;DHT22;8528;49.976;11.858;2022-12-07T06:54:47;4.10;99.90
16823;DHT22;8528;49.976;11.858;2022-12-07T06:57:14;4.10;99.90
16823;DHT22;8528;49.976;11.858;2022-12-07T06:59:44;4.10;99.90
16823;DHT22;8528;49.976;11.858;2022-12-07T07:02:10;4.10;99.90
16823;DHT22;8528;49.976;11.858;2022-12-07T07:04:38;4.10;99.90
16823;DHT22;8528;49.976;11.858;2022-12-07T07:07:04;4.10;99.90
16823;DHT22;8528;49.976;11.858;2022-12-07T07:09:31;4.10;99.90
16823;DHT22;8528;49.976;11.858;2022-12-07T07:12:01;4.10;99.90
16823;DHT22;8528;49.976;11.858;2022-12-07T07:14:27;4.10;99.90
16823;DHT22;8528;49.976;11.858;2022-12-07T07:17:00;4.10;99.90
16823;DHT22;8528;49.976;11.858;2022-12-07T07:19:28;4.10;99.90
16823;DHT22;8528;49.976;11.858;2022-12-07T07:21:55;4.10;99.90
16823;DHT22;8528;49.976;11.858;2022-12-07T07:24:21;4.10;99.90
16823;DHT22;8528;49.976;11.858;2022-12-07T07:26:48;4.10;99.90
16823;DHT22;8528;49.976;11.858;2022-12-07T07:29:16;4.10;99.90
16823;DHT22;8528;49.976;11.858;2022-12-07T07:31:42;4.10;99.90
16823;DHT22;8528;49.976;11.858;2022-12-07T07:34:09;4.10;99.90
16823;DHT22;8528;49.976;11.858;2022-12-07T07:36:38;4.10;99.90
16823;DHT22;8528;49.976;11.858;2022-12-07T07:39:05;4.10;99.90
16823;DHT22;8528;49.976;11.858;2022-12-07T07:41:32;4.10;99.90
16823;DHT22;8528;49.976;11.858;2022-12-07T07:43:59;4.10;99.90
16823;DHT22;8528;49.976;11.858;2022-12-07T07:46:25;4.20;99.90
16823;DHT22;8528;49.976;11.858;2022-12-07T07:48:58;4.10;99.90
16823;DHT22;8528;49.976;11.858;2022-12-07T07:51:28;4.10;99.90
16823;DHT22;8528;49.976;11.858;2022-12-07T07:53:55;4.10;99.90
16823;DHT22;8528;49.976;11.858;2022-12-07T07:56:22;4.10;99.90
16823;DHT22;8528;49.976;11.858;2022-12-07T07:58:57;4.10;99.90
16823;DHT22;8528;49.976;11.858;2022-12-07T08:01:26;4.10;99.90
16823;DHT22;8528;49.976;11.858;2022-12-07T08:03:53;4.10;99.90
16823;DHT22;8528;49.976;11.858;2022-12-07T08:06:33;4.20;99.90
16823;DHT22;8528;49.976;11.858;2022-12-07T08:09:03;4.20;99.90
16823;DHT22;8528;49.976;11.858;2022-12-07T08:11:35;4.20;99.90
16823;DHT22;8528;49.976;11.858;2022-12-07T08:14:03;4.20;99.90
16823;DHT22;8528;49.976;11.858;2022-12-07T08:16:32;4.20;99.90
16823;DHT22;8528;49.976;11.858;2022-12-07T08:18:59;4.20;99.90
16823;DHT22;8528;49.976;11.858;2022-12-07T08:21:28;4.20;99.90
16823;DHT22;8528;49.976;11.858;2022-12-07T08:23:54;4.20;99.90
16823;DHT22;8528;49.976;11.858;2022-12-07T08:26:24;4.20;99.90
16823;DHT22;8528;49.976;11.858;2022-12-07T08:28:52;4.20;99.90
16823;DHT22;8528;49.976;11.858;2022-12-07T08:31:19;4.20;99.90
16823;DHT22;8528;49.976;11.858;2022-12-07T08:33:47;4.20;99.90
16823;DHT22;8528;49.976;11.858;2022-12-07T08:36:14;4.20;99.90
16823;DHT22;8528;49.976;11.858;2022-12-07T08:38:44;4.20;99.90
16823;DHT22;8528;49.976;11.858;2022-12-07T08:41:32;4.20;99.90
16823;DHT22;8528;49.976;11.858;2022-12-07T08:43:59;4.20;99.90
16823;DHT22;8528;49.976;11.858;2022-12-07T08:46:35;4.20;99.90
16823;DHT22;8528;49.976;11.858;2022-12-07T08:49:17;4.20;99.90
16823;DHT22;8528;49.976;11.858;2022-12-07T08:51:45;4.20;99.90
16823;DHT22;8528;49.976;11.858;2022-12-07T08:54:15;4.20;99.90
16823;DHT22;8528;49.976;11.858;2022-12-07T08:56:46;4.20;99.90
16823;DHT22;8528;49.976;11.858;2022-12-07T08:59:20;4.20;99.90
16823;DHT22;8528;49.976;11.858;2022-12-07T09:01:49;4.20;99.90
16823;DHT22;8528;49.976;11.858;2022-12-07T09:04:16;4.20;99.90
16823;DHT22;8528;49.976;11.858;2022-12-07T09:06:43;4.20;99.90
16823;DHT22;8528;49.976;11.858;2022-12-07T09:09:16;4.20;99.90
16823;DHT22;8528;49.976;11.858;2022-12-07T09:11:42;4.20;99.90
16823;DHT22;8528;49.976;11.858;2022-12-07T09:14:12;4.20;99.90
16823;DHT22;8528;49.976;11.858;2022-12-07T09:16:39;4.20;99.90
16823;DHT22;8528;49.976;11.858;2022-12-07T09:19:07;4.20;99.90
16823;DHT22;8528;49.976;11.858;2022-12-07T09:21:35;4.20;99.90
16823;DHT22;8528;49.976;11.858;2022-12-07T09:24:04;4.20;99.90
16823;DHT22;8528;49.976;11.858;2022-12-07T09:26:31;4.20;99.90
16823;DHT22;8528;49.976;11.858;2022-12-07T09:28:58;4.20;99.90
16823;DHT22;8528;49.976;11.858;2022-12-07T09:31:28;4.20;99.90
16823;DHT22;8528;49.976;11.858;2022-12-07T09:33:59;4.20;99.90
16823;DHT22;8528;49.976;11.858;2022-12-07T09:36:30;4.20;99.90
16823;DHT22;8528;49.976;11.858;2022-12-07T09:38:57;4.20;99.90
16823;DHT22;8528;49.976;11.858;2022-12-07T09:41:27;4.20;99.90
16823;DHT22;8528;49.976;11.858;2022-12-07T09:44:05;4.20;99.90
16823;DHT22;8528;49.976;11.858;2022-12-07T09:46:42;4.20;99.90
16823;DHT22;8528;49.976;11.858;2022-12-07T09:49:23;4.20;99.90
16823;DHT22;8528;49.976;11.858;2022-12-07T09:54:41;4.20;99.90
16823;DHT22;8528;49.976;11.858;2022-12-07T09:57:13;4.20;99.90
16823;DHT22;8528;49.976;11.858;2022-12-07T09:59:41;4.20;99.90
16823;DHT22;8528;49.976;11.858;2022-12-07T10:04:57;4.20;99.90
16823;DHT22;8528;49.976;11.858;2022-12-07T10:07:29;4.20;99.90
16823;DHT22;8528;49.976;11.858;2022-12-07T10:09:56;4.20;99.90
16823;DHT22;8528;49.976;11.858;2022-12-07T10:12:25;4.20;99.90
16823;DHT22;8528;49.976;11.858;2022-12-07T10:15:00;4.20;99.90
16823;DHT22;8528;49.976;11.858;2022-12-07T10:17:49;4.20;99.90
16823;DHT22;8528;49.976;11.858;2022-12-07T10:20:26;4.20;99.90
16823;DHT22;8528;49.976;11.858;2022-12-07T10:23:05;4.20;99.90
16823;DHT22;8528;49.976;11.858;2022-12-07T10:25:36;4.20;99.90
16823;DHT22;8528;49.976;11.858;2022-12-07T10:33:48;4.20;99.90
16823;DHT22;8528;49.976;11.858;2022-12-07T10:36:46;4.20;99.90
16823;DHT22;8528;49.976;11.858;2022-12-07T10:39:18;4.20;99.90
16823;DHT22;8528;49.976;11.858;2022-12-07T10:42:00;4.20;99.90
16823;DHT22;8528;49.976;11.858;2022-12-07T10:44:32;4.20;99.90
16823;DHT22;8528;49.976;11.858;2022-12-07T10:56:08;4.20;99.90
16823;DHT22;8528;49.976;11.858;2022-12-07T10:58:56;4.20;99.90
16823;DHT22;8528;49.976;11.858;2022-12-07T11:10:32;4.20;99.90
16823;DHT22;8528;49.976;11.858;2022-12-07T11:13:21;4.20;99.90
16823;DHT22;8528;49.976;11.858;2022-12-07T11:22:38;4.20;99.90
16823;DHT22;8528;49.976;11.858;2022-12-07T11:25:32;4.20;99.90
16823;DHT22;8528;49.976;11.858;2022-12-07T11:31:04;4.20;99.90
16823;DHT22;8528;49.976;11.858;2022-12-07T11:36:47;4.20;99.90
16823;DHT22;8528;49.976;11.858;2022-12-07T11:41:42;4.10;99.90
16823;DHT22;8528;49.976;11.858;2022-12-07T11:44:32;4.10;99.90
16823;DHT22;8528;49.976;11.858;2022-12-07T11:52:38;4.10;99.90
16823;DHT22;8528;49.976;11.858;2022-12-07T11:55:24;4.10;99.90
16823;DHT22;8528;49.976;11.858;2022-12-07T11:58:08;4.10;99.90
16823;DHT22;8528;49.976;11.858;2022-12-07T12:00:42;4.10;99.90
16823;DHT22;8528;49.976;11.858;2022-12-07T12:03:30;4.10;99.90
16823;DHT22;8528;49.976;11.858;2022-12-07T12:05:59;4.10;99.90
16823;DHT22;8528;49.976;11.858;2022-12-07T12:15:19;4.10;99.90
16823;DHT22;8528;49.976;11.858;2022-12-07T12:18:03;4.10;99.90
16823;DHT22;8528;49.976;11.858;2022-12-07T12:20:57;4.10;99.90
16823;DHT22;8528;49.976;11.858;2022-12-07T12:23:41;4.10;99.90
16823;DHT22;8528;49.976;11.858;2022-12-07T12:26:22;4.10;99.90
16823;DHT22;8528;49.976;11.858;2022-12-07T12:28:57;4.10;99.90
16823;DHT22;8528;49.976;11.858;2022-12-07T12:31:41;4.10;99.90
16823;DHT22;8528;49.976;11.858;2022-12-07T12:42:54;4.10;99.90
16823;DHT22;8528;49.976;11.858;2022-12-07T12:45:32;4.10;99.90
16823;DHT22;8528;49.976;11.858;2022-12-07T12:48:29;4.10;99.90
16823;DHT22;8528;49.976;11.858;2022-12-07T12:54:32;4.10;99.90
16823;DHT22;8528;49.976;11.858;2022-12-07T12:57:21;4.10;99.90
16823;DHT22;8528;49.976;11.858;2022-12-07T13:02:38;4.10;99.90
16823;DHT22;8528;49.976;11.858;2022-12-07T13:10:53;4.10;99.90
16823;DHT22;8528;49.976;11.858;2022-12-07T13:15:51;4.10;99.90
16823;DHT22;8528;49.976;11.858;2022-12-07T13:21:40;4.10;99.90
16823;DHT22;8528;49.976;11.858;2022-12-07T13:29:07;4.10;99.90
16823;DHT22;8528;49.976;11.858;2022-12-07T13:34:29;4.10;99.90
16823;DHT22;8528;49.976;11.858;2022-12-07T13:36:58;4.10;99.90
16823;DHT22;8528;49.976;11.858;2022-12-07T13:39:26;4.10;99.90
16823;DHT22;8528;49.976;11.858;2022-12-07T13:41:57;4.10;99.90
16823;DHT22;8528;49.976;11.858;2022-12-07T13:44:26;4.10;99.90
16823;DHT22;8528;49.976;11.858;2022-12-07T13:47:17;4.10;99.90
16823;DHT22;8528;49.976;11.858;2022-12-07T13:49:54;4.10;99.90
16823;DHT22;8528;49.976;11.858;2022-12-07T13:52:29;4.10;99.90
16823;DHT22;8528;49.976;11.858;2022-12-07T13:55:05;4.10;99.90
16823;DHT22;8528;49.976;11.858;2022-12-07T13:57:35;4.10;99.90
16823;DHT22;8528;49.976;11.858;2022-12-07T14:00:15;4.10;99.90
16823;DHT22;8528;49.976;11.858;2022-12-07T14:02:59;4.10;99.90
16823;DHT22;8528;49.976;11.858;2022-12-07T14:05:34;4.10;99.90
16823;DHT22;8528;49.976;11.858;2022-12-07T14:13:50;4.20;99.90
16823;DHT22;8528;49.976;11.858;2022-12-07T14:16:24;4.10;99.90
16823;DHT22;8528;49.976;11.858;2022-12-07T14:18:52;4.20;99.90
16823;DHT22;8528;49.976;11.858;2022-12-07T14:21:21;4.10;99.90
16823;DHT22;8528;49.976;11.858;2022-12-07T14:24:16;4.20;99.90
16823;DHT22;8528;49.976;11.858;2022-12-07T14:26:48;4.20;99.90
16823;DHT22;8528;49.976;11.858;2022-12-07T14:31:46;4.20;99.90
16823;DHT22;8528;49.976;11.858;2022-12-07T14:34:13;4.20;99.90
16823;DHT22;8528;49.976;11.858;2022-12-07T14:36:40;4.20;99.90
16823;DHT22;8528;49.976;11.858;2022-12-07T14:39:10;4.20;99.90
16823;DHT22;8528;49.976;11.858;2022-12-07T14:41:45;4.20;99.90
16823;DHT22;8528;49.976;11.858;2022-12-07T14:44:22;4.20;99.90
16823;DHT22;8528;49.976;11.858;2022-12-07T14:46:53;4.20;99.90
16823;DHT22;8528;49.976;11.858;2022-12-07T14:49:41;4.20;99.90
16823;DHT22;8528;49.976;11.858;2022-12-07T14:52:17;4.20;99.90
16823;DHT22;8528;49.976;11.858;2022-12-07T14:55:11;4.20;99.90
16823;DHT22;8528;49.976;11.858;2022-12-07T14:57:41;4.20;99.90
16823;DHT22;8528;49.976;11.858;2022-12-07T15:00:14;4.20;99.90
16823;DHT22;8528;49.976;11.858;2022-12-07T15:02:41;4.20;99.90
16823;DHT22;8528;49.976;11.858;2022-12-07T15:05:11;4.20;99.90
16823;DHT22;8528;49.976;11.858;2022-12-07T15:07:42;4.20;99.90
16823;DHT22;8528;49.976;11.858;2022-12-07T15:10:31;4.20;99.90
16823;DHT22;8528;49.976;11.858;2022-12-07T15:12:59;4.20;99.90
16823;DHT22;8528;49.976;11.858;2022-12-07T15:15:46;4.20;99.90
16823;DHT22;8528;49.976;11.858;2022-12-07T15:18:13;4.20;99.90
16823;DHT22;8528;49.976;11.858;2022-12-07T15:20:40;4.20;99.90
16823;DHT22;8528;49.976;11.858;2022-12-07T15:23:07;4.20;99.90
16823;DHT22;8528;49.976;11.858;2022-12-07T15:25:33;4.20;99.90
16823;DHT22;8528;49.976;11.858;2022-12-07T15:28:00;4.20;99.90
16823;DHT22;8528;49.976;11.858;2022-12-07T15:30:27;4.20;99.90
16823;DHT22;8528;49.976;11.858;2022-12-07T15:32:54;4.20;99.90
16823;DHT22;8528;49.976;11.858;2022-12-07T15:35:21;4.20;99.90
16823;DHT22;8528;49.976;11.858;2022-12-07T15:37:50;4.20;99.90
16823;DHT22;8528;49.976;11.858;2022-12-07T15:40:16;4.20;99.90
16823;DHT22;8528;49.976;11.858;2022-12-07T15:42:46;4.20;99.90
16823;DHT22;8528;49.976;11.858;2022-12-07T15:45:16;4.20;99.90
16823;DHT22;8528;49.976;11.858;2022-12-07T15:47:44;4.20;99.90
16823;DHT22;8528;49.976;11.858;2022-12-07T15:50:31;4.20;99.90
16823;DHT22;8528;49.976;11.858;2022-12-07T15:52:58;4.20;99.90
16823;DHT22;8528;49.976;11.858;2022-12-07T15:55:24;4.20;99.90
16823;DHT22;8528;49.976;11.858;2022-12-07T15:57:51;4.20;99.90
16823;DHT22;8528;49.976;11.858;2022-12-07T16:00:18;4.20;99.90
16823;DHT22;8528;49.976;11.858;2022-12-07T16:02:45;4.20;99.90
16823;DHT22;8528;49.976;11.858;2022-12-07T16:05:12;4.20;99.90
16823;DHT22;8528;49.976;11.858;2022-12-07T16:07:39;4.20;99.90
16823;DHT22;8528;49.976;11.858;2022-12-07T16:10:06;4.20;99.90
16823;DHT22;8528;49.976;11.858;2022-12-07T16:12:33;4.20;99.90
16823;DHT22;8528;49.976;11.858;2022-12-07T16:15:00;4.20;99.90
16823;DHT22;8528;49.976;11.858;2022-12-07T16:17:27;4.20;99.90
16823;DHT22;8528;49.976;11.858;2022-12-07T16:19:54;4.20;99.90
16823;DHT22;8528;49.976;11.858;2022-12-07T16:22:21;4.20;99.90
16823;DHT22;8528;49.976;11.858;2022-12-07T16:25:03;4.20;99.90
16823;DHT22;8528;49.976;11.858;2022-12-07T16:27:30;4.20;99.90
16823;DHT22;8528;49.976;11.858;2022-12-07T16:29:59;4.20;99.90
16823;DHT22;8528;49.976;11.858;2022-12-07T16:32:29;4.20;99.90
16823;DHT22;8528;49.976;11.858;2022-12-07T16:34:58;4.20;99.90
16823;DHT22;8528;49.976;11.858;2022-12-07T16:37:25;4.20;99.90
16823;DHT22;8528;49.976;11.858;2022-12-07T16:39:55;4.20;99.90
16823;DHT22;8528;49.976;11.858;2022-12-07T16:42:22;4.20;99.90
16823;DHT22;8528;49.976;11.858;2022-12-07T16:44:49;4.20;99.90
16823;DHT22;8528;49.976;11.858;2022-12-07T16:47:15;4.20;99.90
16823;DHT22;8528;49.976;11.858;2022-12-07T16:49:45;4.30;99.90
16823;DHT22;8528;49.976;11.858;2022-12-07T16:52:12;4.20;99.90
16823;DHT22;8528;49.976;11.858;2022-12-07T16:54:48;4.20;99.90
16823;DHT22;8528;49.976;11.858;2022-12-07T16:57:22;4.20;99.90
16823;DHT22;8528;49.976;11.858;2022-12-07T16:59:50;4.20;99.90
16823;DHT22;8528;49.976;11.858;2022-12-07T17:02:20;4.20;99.90
16823;DHT22;8528;49.976;11.858;2022-12-07T17:04:52;4.30;99.90
16823;DHT22;8528;49.976;11.858;2022-12-07T17:07:19;4.30;99.90
16823;DHT22;8528;49.976;11.858;2022-12-07T17:09:45;4.30;99.90
16823;DHT22;8528;49.976;11.858;2022-12-07T17:12:12;4.30;99.90
16823;DHT22;8528;49.976;11.858;2022-12-07T17:14:39;4.30;99.90
16823;DHT22;8528;49.976;11.858;2022-12-07T17:17:25;4.30;99.90
16823;DHT22;8528;49.976;11.858;2022-12-07T17:19:52;4.30;99.90
16823;DHT22;8528;49.976;11.858;2022-12-07T17:22:18;4.30;99.90
16823;DHT22;8528;49.976;11.858;2022-12-07T17:24:45;4.30;99.90
16823;DHT22;8528;49.976;11.858;2022-12-07T17:27:12;4.30;99.90
16823;DHT22;8528;49.976;11.858;2022-12-07T17:29:39;4.30;99.90
16823;DHT22;8528;49.976;11.858;2022-12-07T17:32:08;4.30;99.90
16823;DHT22;8528;49.976;11.858;2022-12-07T17:34:38;4.30;99.90
16823;DHT22;8528;49.976;11.858;2022-12-07T17:37:05;4.30;99.90
16823;DHT22;8528;49.976;11.858;2022-12-07T17:39:31;4.30;99.90
16823;DHT22;8528;49.976;11.858;2022-12-07T17:41:58;4.30;99.90
16823;DHT22;8528;49.976;11.858;2022-12-07T17:44:43;4.30;99.90
16823;DHT22;8528;49.976;11.858;2022-12-07T17:47:10;4.30;99.90
16823;DHT22;8528;49.976;11.858;2022-12-07T17:49:42;4.30;99.90
16823;DHT22;8528;49.976;11.858;2022-12-07T17:52:12;4.30;99.90
16823;DHT22;8528;49.976;11.858;2022-12-07T17:54:57;4.30;99.90
16823;DHT22;8528;49.976;11.858;2022-12-07T17:57:27;4.30;99.90
16823;DHT22;8528;49.976;11.858;2022-12-07T17:59:57;4.30;99.90
16823;DHT22;8528;49.976;11.858;2022-12-07T18:02:23;4.30;99.90
16823;DHT22;8528;49.976;11.858;2022-12-07T18:04:53;4.30;99.90
16823;DHT22;8528;49.976;11.858;2022-12-07T18:07:20;4.30;99.90
16823;DHT22;8528;49.976;11.858;2022-12-07T18:09:47;4.30;99.90
16823;DHT22;8528;49.976;11.858;2022-12-07T18:12:14;4.30;99.90
16823;DHT22;8528;49.976;11.858;2022-12-07T18:14:41;4.30;99.90